Time,TemperatureF,DewpointF,PressureIn,WindDirection,WindDirectionDegrees,WindSpeedMPH,WindSpeedGustMPH,Humidity,HourlyPrecipIn,Conditions,Clouds,dailyrainin,SolarRadiationWatts/m^2,SoftwareType,DateUTC
2013-09-11 00:00:00,75.5,72.0,30.09,South,186,2.4,4.0,89,0.00,RA,,0.00,0.0,WeatherDisplay:10.37,2013-09-11 04:00:00,
2013-09-11 00:01:00,75.5,72.0,30.09,South,186,2.6,3.5,89,0.00,RA,,0.00,0.0,WeatherDisplay:10.37,2013-09-11 04:01:00,
2013-09-11 00:02:00,75.6,72.1,30.09,South,186,1.2,3.5,89,0.00,RA,,0.00,0.0,WeatherDisplay:10.37,2013-09-11 04:02:00,
2013-09-11 00:04:00,75.5,72.0,30.09,SW,215,3.5,6.9,89,0.00,RA,,0.00,0.0,WeatherDisplay:10.37,2013-09-11 04:04:00,
2013-09-11 00:09:00,75.5,72.0,30.09,SW,217,4.6,14.0,89,0.00,RA,,0.00,0.0,WeatherDisplay:10.37,2013-09-11 04:09:00,
2013-09-11 00:14:00,75.5,72.0,30.09,WSW,247,1.6,4.6,89,0.00,CLR,,0.00,0.0,WeatherDisplay:10.37,2013-09-11 04:14:00,
2013-09-11 00:19:00,75.6,72.1,30.09,SSW,195,2.1,4.6,89,0.00,CLR,,0.00,0.0,WeatherDisplay:10.37,2013-09-11 04:19:00,
2013-09-11 00:24:00,75.6,72.1,30.09,SSW,212,3.4,4.6,89,0.00,CLR,,0.00,0.0,WeatherDisplay:10.37,2013-09-11 04:24:00,
2013-09-11 00:29:00,75.7,72.2,30.09,South,186,1.4,3.5,89,0.00,CLR,,0.00,0.0,WeatherDisplay:10.37,2013-09-11 04:29:00,
2013-09-11 00:34:00,75.7,71.9,30.09,WSW,239,0.5,2.3,88,0.00,CLR,,0.00,0.0,WeatherDisplay:10.37,2013-09-11 04:34:00,
2013-09-11 00:39:00,75.7,71.9,30.09,SW,223,0.9,2.3,88,0.00,CLR,,0.00,0.0,WeatherDisplay:10.37,2013-09-11 04:39:00,
2013-09-11 00:44:00,75.7,71.9,30.09,SSW,205,0.6,3.5,88,0.00,CLR,,0.00,0.0,WeatherDisplay:10.37,2013-09-11 04:44:00,
2013-09-11 00:49:00,75.7,71.9,30.09,SW,232,1.2,2.3,88,0.00,CLR,,0.00,0.0,WeatherDisplay:10.37,2013-09-11 04:49:00,
2013-09-11 00:55:00,75.6,71.8,30.09,SW,222,0.8,3.5,88,0.00,CLR,,0.00,0.0,WeatherDisplay:10.37,2013-09-11 04:55:00,
2013-09-11 01:00:00,75.5,71.7,30.09,WSW,247,3.7,5.0,88,0.00,CLR,,0.00,0.0,WeatherDisplay:10.37,2013-09-11 05:00:00,
2013-09-11 01:05:00,75.4,71.6,30.09,SW,232,3.5,6.9,88,0.00,CLR,,0.00,0.0,WeatherDisplay:10.37,2013-09-11 05:05:00,
2013-09-11 01:10:00,75.3,71.8,30.09,WSW,254,3.3,4.6,89,0.00,CLR,,0.00,0.0,WeatherDisplay:10.37,2013-09-11 05:10:00,
2013-09-11 01:15:00,75.3,71.8,30.09,WSW,253,2.3,4.6,89,0.00,CLR,,0.00,0.0,WeatherDisplay:10.37,2013-09-11 05:15:00,
2013-09-11 01:20:00,75.3,71.8,30.08,WSW,256,1.4,4.6,89,0.00,CLR,,0.00,0.0,WeatherDisplay:10.37,2013-09-11 05:20:00,
2013-09-11 01:25:00,75.3,71.8,30.08,SW,219,3.6,6.9,89,0.00,CLR,,0.00,0.0,WeatherDisplay:10.37,2013-09-11 05:25:00,
2013-09-11 01:30:00,75.3,71.8,30.08,SW,226,2.6,4.6,89,0.00,CLR,,0.00,0.0,WeatherDisplay:10.37,2013-09-11 05:30:00,
2013-09-11 01:35:00,75.3,71.8,30.08,South,188,4.2,10.4,89,0.00,CLR,,0.00,0.0,WeatherDisplay:10.37,2013-09-11 05:35:00,
2013-09-11 01:40:00,75.3,71.8,30.08,SW,233,2.9,4.6,89,0.00,CLR,,0.00,0.0,WeatherDisplay:10.37,2013-09-11 05:40:00,
2013-09-11 01:46:00,75.3,71.8,30.08,SW,223,1.6,3.0,89,0.00,CLR,,0.00,0.0,WeatherDisplay:10.37,2013-09-11 05:46:00,
2013-09-11 01:51:00,75.2,71.7,30.08,SSW,209,2.6,6.9,89,0.00,CLR,,0.00,0.0,WeatherDisplay:10.37,2013-09-11 05:51:00,
2013-09-11 01:56:00,75.2,71.7,30.08,South,176,1.1,2.3,89,0.00,CLR,,0.00,0.0,WeatherDisplay:10.37,2013-09-11 05:56:00,
2013-09-11 02:01:00,75.2,71.7,30.08,SSW,212,2.1,4.0,89,0.00,CLR,,0.00,0.0,WeatherDisplay:10.37,2013-09-11 06:01:00,
2013-09-11 02:06:00,75.2,71.7,30.08,SW,221,2.1,5.0,89,0.00,CLR,,0.00,0.0,WeatherDisplay:10.37,2013-09-11 06:06:00,
2013-09-11 02:11:00,75.1,71.6,30.08,WSW,244,2.7,6.0,89,0.00,CLR,,0.00,0.0,WeatherDisplay:10.37,2013-09-11 06:11:00,
2013-09-11 02:16:00,75.1,72.0,30.07,WSW,238,1.3,3.5,90,0.00,CLR,,0.00,0.0,WeatherDisplay:10.37,2013-09-11 06:16:00,
2013-09-11 02:21:00,75.0,71.9,30.07,SSW,195,2.5,12.7,90,0.00,CLR,,0.00,0.0,WeatherDisplay:10.37,2013-09-11 06:21:00,
2013-09-11 02:26:00,75.0,71.9,30.07,WSW,244,3.0,5.8,90,0.00,CLR,,0.00,0.0,WeatherDisplay:10.37,2013-09-11 06:26:00,
2013-09-11 02:32:00,75.1,72.0,30.07,SW,231,4.4,5.8,90,0.00,CLR,,0.00,0.0,WeatherDisplay:10.37,2013-09-11 06:32:00,
2013-09-11 02:37:00,75.2,72.1,30.07,WSW,244,4.9,8.0,90,0.00,CLR,,0.00,0.0,WeatherDisplay:10.37,2013-09-11 06:37:00,
2013-09-11 02:42:00,75.3,72.2,30.07,SSW,196,2.2,6.0,90,0.00,CLR,,0.00,0.0,WeatherDisplay:10.37,2013-09-11 06:42:00,
2013-09-11 02:47:00,75.3,72.2,30.06,WSW,251,1.1,4.0,90,0.00,CLR,,0.00,0.0,WeatherDisplay:10.37,2013-09-11 06:47:00,
2013-09-11 02:52:00,75.4,71.9,30.06,SW,229,3.7,5.0,89,0.00,CLR,,0.00,0.0,WeatherDisplay:10.37,2013-09-11 06:52:00,
2013-09-11 02:57:00,75.5,72.0,30.06,South,180,2.6,4.6,89,0.00,CLR,,0.00,0.0,WeatherDisplay:10.37,2013-09-11 06:57:00,
2013-09-11 03:02:00,75.6,72.1,30.06,South,182,3.0,6.9,89,0.00,CLR,,0.00,0.0,WeatherDisplay:10.37,2013-09-11 07:02:00,
2013-09-11 03:07:00,75.8,72.3,30.06,SSW,197,4.0,6.9,89,0.00,CLR,,0.00,0.0,WeatherDisplay:10.37,2013-09-11 07:07:00,
2013-09-11 03:12:00,75.9,72.4,30.06,SW,231,1.9,5.8,89,0.00,CLR,,0.00,0.0,WeatherDisplay:10.37,2013-09-11 07:12:00,
2013-09-11 03:17:00,76.0,72.5,30.06,SSW,202,2.3,3.5,89,0.00,CLR,,0.00,0.0,WeatherDisplay:10.37,2013-09-11 07:17:00,
2013-09-11 03:23:00,76.0,72.5,30.06,SW,225,2.1,3.5,89,0.00,CLR,,0.00,0.0,WeatherDisplay:10.37,2013-09-11 07:23:00,
2013-09-11 03:28:00,76.0,72.2,30.06,SW,225,2.4,4.6,88,0.00,CLR,,0.00,0.0,WeatherDisplay:10.37,2013-09-11 07:28:00,
2013-09-11 03:33:00,76.1,72.3,30.06,SW,234,1.8,3.5,88,0.00,CLR,,0.00,0.0,WeatherDisplay:10.37,2013-09-11 07:33:00,
2013-09-11 03:38:00,76.1,72.3,30.06,SSW,205,3.8,5.8,88,0.00,CLR,,0.00,0.0,WeatherDisplay:10.37,2013-09-11 07:38:00,
2013-09-11 03:43:00,76.0,72.2,30.06,West,263,1.1,2.3,88,0.00,CLR,,0.00,0.0,WeatherDisplay:10.37,2013-09-11 07:43:00,
2013-09-11 03:48:00,76.0,72.5,30.06,WSW,244,4.3,8.0,89,0.00,CLR,,0.00,0.0,WeatherDisplay:10.37,2013-09-11 07:48:00,
2013-09-11 03:53:00,76.0,72.5,30.06,SW,235,1.6,3.5,89,0.00,CLR,,0.00,0.0,WeatherDisplay:10.37,2013-09-11 07:53:00,
2013-09-11 03:58:00,76.0,72.5,30.06,WSW,250,4.2,5.8,89,0.00,CLR,,0.00,0.0,WeatherDisplay:10.37,2013-09-11 07:58:00,
2013-09-11 04:03:00,76.0,72.5,30.06,SW,214,4.6,9.2,89,0.00,CLR,,0.00,0.0,WeatherDisplay:10.37,2013-09-11 08:03:00,
2013-09-11 04:08:00,76.0,72.5,30.06,South,182,2.6,5.0,89,0.00,CLR,,0.00,0.0,WeatherDisplay:10.37,2013-09-11 08:08:00,
2013-09-11 04:14:00,76.0,72.5,30.06,SW,226,4.7,8.1,89,0.00,CLR,,0.00,0.0,WeatherDisplay:10.37,2013-09-11 08:14:00,
2013-09-11 04:19:00,76.0,72.5,30.06,WSW,254,4.4,8.1,89,0.00,CLR,,0.00,0.0,WeatherDisplay:10.37,2013-09-11 08:19:00,
2013-09-11 04:24:00,76.0,72.5,30.06,SW,229,4.3,8.1,89,0.00,CLR,,0.00,0.0,WeatherDisplay:10.37,2013-09-11 08:24:00,
2013-09-11 04:29:00,76.0,72.5,30.06,SW,228,3.0,4.6,89,0.00,CLR,,0.00,0.0,WeatherDisplay:10.37,2013-09-11 08:29:00,
2013-09-11 04:34:00,76.0,72.5,30.06,SW,220,0.4,3.5,89,0.00,CLR,,0.00,0.0,WeatherDisplay:10.37,2013-09-11 08:34:00,
2013-09-11 04:39:00,76.0,72.5,30.05,WSW,242,3.6,8.0,89,0.00,CLR,,0.00,0.0,WeatherDisplay:10.37,2013-09-11 08:39:00,
2013-09-11 04:44:00,76.0,72.5,30.05,SW,221,2.5,5.8,89,0.00,CLR,,0.00,0.0,WeatherDisplay:10.37,2013-09-11 08:44:00,
2013-09-11 04:49:00,76.0,72.5,30.06,WSW,246,0.7,3.0,89,0.00,CLR,,0.00,0.0,WeatherDisplay:10.37,2013-09-11 08:49:00,
2013-09-11 04:54:00,75.9,72.4,30.06,WSW,248,1.4,3.5,89,0.00,CLR,,0.00,0.0,WeatherDisplay:10.37,2013-09-11 08:54:00,
2013-09-11 04:59:00,75.8,72.3,30.06,SW,231,3.7,6.9,89,0.00,CLR,,0.00,0.0,WeatherDisplay:10.37,2013-09-11 08:59:00,
2013-09-11 05:05:00,75.8,72.7,30.06,WSW,242,3.3,5.0,90,0.00,CLR,,0.00,0.0,WeatherDisplay:10.37,2013-09-11 09:05:00,
2013-09-11 05:10:00,75.8,72.7,30.06,SW,233,2.4,5.8,90,0.00,CLR,,0.00,0.0,WeatherDisplay:10.37,2013-09-11 09:10:00,
2013-09-11 05:15:00,75.7,72.6,30.06,West,260,3.0,5.8,90,0.00,CLR,,0.00,0.0,WeatherDisplay:10.37,2013-09-11 09:15:00,
2013-09-11 05:20:00,75.7,72.6,30.06,SW,226,2.4,6.9,90,0.00,CLR,,0.00,0.0,WeatherDisplay:10.37,2013-09-11 09:20:00,
2013-09-11 05:25:00,75.7,72.6,30.06,SSW,206,0.2,3.5,90,0.00,CLR,,0.00,0.0,WeatherDisplay:10.37,2013-09-11 09:25:00,
2013-09-11 05:30:00,75.6,72.5,30.06,WSW,249,0.9,2.3,90,0.00,CLR,,0.00,0.0,WeatherDisplay:10.37,2013-09-11 09:30:00,
2013-09-11 05:35:00,75.6,72.5,30.07,SW,236,1.6,4.0,90,0.00,CLR,,0.00,0.0,WeatherDisplay:10.37,2013-09-11 09:35:00,
2013-09-11 05:40:00,75.6,72.5,30.07,WSW,242,3.0,4.6,90,0.00,CLR,,0.00,0.0,WeatherDisplay:10.37,2013-09-11 09:40:00,
2013-09-11 05:45:00,75.6,72.5,30.07,SW,228,3.4,8.0,90,0.00,CLR,,0.00,0.0,WeatherDisplay:10.37,2013-09-11 09:45:00,
2013-09-11 05:50:00,75.6,72.5,30.07,South,181,1.2,4.6,90,0.00,CLR,,0.00,0.0,WeatherDisplay:10.37,2013-09-11 09:50:00,
2013-09-11 05:56:00,75.6,72.5,30.06,WSW,244,2.2,6.9,90,0.00,CLR,,0.00,0.0,WeatherDisplay:10.37,2013-09-11 09:56:00,
2013-09-11 06:01:00,75.6,72.5,30.07,SW,236,1.7,3.5,90,0.00,OVC,,0.00,0.0,WeatherDisplay:10.37,2013-09-11 10:01:00,
2013-09-11 06:06:00,75.6,72.5,30.07,South,188,0.0,2.3,90,0.00,OVC,,0.00,0.0,WeatherDisplay:10.37,2013-09-11 10:06:00,
2013-09-11 06:11:00,75.6,72.5,30.07,SW,230,0.8,2.3,90,0.00,OVC,,0.00,0.0,WeatherDisplay:10.37,2013-09-11 10:11:00,
2013-09-11 06:16:00,75.6,72.5,30.07,SW,232,2.0,3.5,90,0.00,OVC,,0.00,0.0,WeatherDisplay:10.37,2013-09-11 10:16:00,
2013-09-11 06:21:00,75.5,72.4,30.07,SW,229,1.7,3.5,90,0.00,OVC,,0.00,0.0,WeatherDisplay:10.37,2013-09-11 10:21:00,
2013-09-11 06:26:00,75.5,72.4,30.08,SW,232,1.5,2.3,90,0.00,OVC,,0.00,0.0,WeatherDisplay:10.37,2013-09-11 10:26:00,
2013-09-11 06:31:00,75.5,72.4,30.08,SW,225,1.5,3.5,90,0.00,OVC,,0.00,0.0,WeatherDisplay:10.37,2013-09-11 10:31:00,
2013-09-11 06:36:00,75.5,72.4,30.08,SW,223,0.0,1.2,90,0.00,BKN,,0.00,5.0,WeatherDisplay:10.37,2013-09-11 10:36:00,
2013-09-11 06:41:00,75.4,72.3,30.08,SW,228,0.1,2.3,90,0.00,BKN,,0.00,7.0,WeatherDisplay:10.37,2013-09-11 10:41:00,
2013-09-11 06:47:00,75.3,72.2,30.09,SW,217,1.0,2.0,90,0.00,BKN,,0.00,11.0,WeatherDisplay:10.37,2013-09-11 10:47:00,
2013-09-11 06:52:00,75.2,72.4,30.09,SW,234,1.6,4.6,91,0.00,BKN,,0.00,14.0,WeatherDisplay:10.37,2013-09-11 10:52:00,
2013-09-11 06:57:00,75.2,72.4,30.09,WSW,254,2.5,4.0,91,0.00,BKN,,0.00,18.0,WeatherDisplay:10.37,2013-09-11 10:57:00,
2013-09-11 07:02:00,75.1,72.3,30.09,WSW,248,1.2,2.3,91,0.00,BKN,,0.00,23.0,WeatherDisplay:10.37,2013-09-11 11:02:00,
2013-09-11 07:07:00,75.1,72.3,30.09,SSW,213,0.9,2.0,91,0.00,BKN,,0.00,26.0,WeatherDisplay:10.37,2013-09-11 11:07:00,
2013-09-11 07:12:00,75.0,72.2,30.09,SW,231,2.2,4.6,91,0.00,BKN,,0.00,30.0,WeatherDisplay:10.37,2013-09-11 11:12:00,
2013-09-11 07:17:00,75.0,72.2,30.09,SSW,205,2.7,5.8,91,0.00,BKN,,0.00,32.0,WeatherDisplay:10.37,2013-09-11 11:17:00,
2013-09-11 07:22:00,75.0,72.2,30.10,SW,227,3.1,8.1,91,0.00,BKN,,0.00,37.0,WeatherDisplay:10.37,2013-09-11 11:22:00,
2013-09-11 07:27:00,75.0,72.2,30.09,South,191,1.5,3.5,91,0.00,BKN,,0.00,40.0,WeatherDisplay:10.37,2013-09-11 11:27:00,
2013-09-11 07:32:00,75.0,72.2,30.10,ENE,62,1.2,3.5,91,0.00,BKN,,0.00,44.0,WeatherDisplay:10.37,2013-09-11 11:32:00,
2013-09-11 07:38:00,75.1,72.3,30.09,SSW,204,2.2,4.0,91,0.00,BKN,,0.00,46.0,WeatherDisplay:10.37,2013-09-11 11:38:00,
2013-09-11 07:43:00,75.1,72.3,30.10,SSW,206,2.0,5.8,91,0.00,BKN,,0.00,63.0,WeatherDisplay:10.37,2013-09-11 11:43:00,
2013-09-11 07:48:00,75.2,72.4,30.10,SW,225,1.2,4.6,91,0.00,BKN,,0.00,62.0,WeatherDisplay:10.37,2013-09-11 11:48:00,
2013-09-11 07:53:00,75.4,72.6,30.09,South,190,1.3,3.5,91,0.00,BKN,,0.00,54.0,WeatherDisplay:10.37,2013-09-11 11:53:00,
2013-09-11 07:58:00,75.5,72.7,30.10,South,171,2.2,3.5,91,0.00,BKN,,0.00,56.0,WeatherDisplay:10.37,2013-09-11 11:58:00,
2013-09-11 08:03:00,75.7,72.9,30.10,WSW,241,1.5,3.0,91,0.00,BKN,,0.00,69.0,WeatherDisplay:10.37,2013-09-11 12:03:00,
2013-09-11 08:09:00,75.8,73.0,30.10,SW,219,1.0,4.6,91,0.00,BKN,,0.00,77.0,WeatherDisplay:10.37,2013-09-11 12:09:00,
2013-09-11 08:14:00,76.0,73.2,30.10,SW,221,4.0,8.1,91,0.00,BKN,,0.00,62.0,WeatherDisplay:10.37,2013-09-11 12:14:00,
2013-09-11 08:19:00,76.2,73.1,30.10,WSW,238,2.4,3.5,90,0.00,BKN,,0.00,63.0,WeatherDisplay:10.37,2013-09-11 12:19:00,
2013-09-11 08:24:00,76.4,73.2,30.10,SW,214,3.3,7.0,90,0.00,BKN,,0.00,72.0,WeatherDisplay:10.37,2013-09-11 12:24:00,
2013-09-11 08:29:00,76.7,73.5,30.10,WSW,254,0.5,4.6,90,0.00,BKN,,0.00,70.0,WeatherDisplay:10.37,2013-09-11 12:29:00,
2013-09-11 08:34:00,76.9,73.7,30.10,WSW,242,2.1,4.0,90,0.00,BKN,,0.00,72.0,WeatherDisplay:10.37,2013-09-11 12:34:00,
2013-09-11 08:39:00,77.1,73.9,30.10,SW,219,1.5,4.6,90,0.00,BKN,,0.00,120.0,WeatherDisplay:10.37,2013-09-11 12:39:00,
2013-09-11 08:44:00,77.4,73.9,30.10,SW,232,1.7,3.5,89,0.00,BKN,,0.00,111.0,WeatherDisplay:10.37,2013-09-11 12:44:00,
2013-09-11 08:49:00,77.7,73.9,30.10,WSW,240,4.8,8.1,88,0.00,BKN,,0.00,77.0,WeatherDisplay:10.37,2013-09-11 12:49:00,
2013-09-11 08:55:00,78.0,74.2,30.10,SSW,213,3.4,4.6,88,0.00,BKN,,0.00,77.0,WeatherDisplay:10.37,2013-09-11 12:55:00,
2013-09-11 09:00:00,78.3,74.5,30.10,SW,221,4.8,7.0,88,0.00,BKN,,0.00,79.0,WeatherDisplay:10.37,2013-09-11 13:00:00,
2013-09-11 09:05:00,78.6,74.4,30.10,SSW,206,4.8,6.9,87,0.00,BKN,,0.00,79.0,WeatherDisplay:10.37,2013-09-11 13:05:00,
2013-09-11 09:10:00,78.9,74.4,30.10,WSW,240,2.7,3.5,86,0.00,BKN,,0.00,81.0,WeatherDisplay:10.37,2013-09-11 13:10:00,
2013-09-11 09:15:00,79.2,74.6,30.09,SSW,201,4.7,6.9,86,0.00,BKN,,0.00,84.0,WeatherDisplay:10.37,2013-09-11 13:15:00,
2013-09-11 09:20:00,79.5,74.9,30.09,SW,235,1.8,4.0,86,0.00,BKN,,0.00,130.0,WeatherDisplay:10.37,2013-09-11 13:20:00,
2013-09-11 09:25:00,79.8,75.2,30.09,SSW,213,2.1,4.6,86,0.00,BKN,,0.00,216.0,WeatherDisplay:10.37,2013-09-11 13:25:00,
2013-09-11 09:30:00,80.2,75.6,30.09,SSW,213,0.6,4.0,86,0.00,BKN,,0.00,109.0,WeatherDisplay:10.37,2013-09-11 13:30:00,
2013-09-11 09:35:00,80.5,75.2,30.09,WSW,237,4.2,5.0,84,0.00,BKN,,0.00,100.0,WeatherDisplay:10.37,2013-09-11 13:35:00,
2013-09-11 09:40:00,81.0,75.3,30.09,SSW,200,2.0,4.6,83,0.00,BKN,,0.00,127.0,WeatherDisplay:10.37,2013-09-11 13:40:00,
2013-09-11 09:46:00,81.4,75.7,30.09,WNW,286,1.4,4.6,83,0.00,BKN,,0.00,97.0,WeatherDisplay:10.37,2013-09-11 13:46:00,
2013-09-11 09:51:00,81.7,76.0,30.09,WNW,302,2.0,5.0,83,0.00,BKN,,0.00,109.0,WeatherDisplay:10.37,2013-09-11 13:51:00,
2013-09-11 09:56:00,82.1,76.1,30.09,WSW,240,0.9,4.6,82,0.00,BKN,,0.00,260.0,WeatherDisplay:10.37,2013-09-11 13:56:00,
2013-09-11 10:01:00,82.4,76.0,30.09,WNW,301,2.4,5.0,81,0.00,BKN,,0.00,113.0,WeatherDisplay:10.37,2013-09-11 14:01:00,
2013-09-11 10:06:00,82.7,76.3,30.09,WSW,247,0.7,2.3,81,0.00,BKN,,0.00,105.0,WeatherDisplay:10.37,2013-09-11 14:06:00,
2013-09-11 10:11:00,83.0,76.2,30.09,WNW,288,2.6,4.6,80,0.00,BKN,,0.00,104.0,WeatherDisplay:10.37,2013-09-11 14:11:00,
2013-09-11 10:16:00,83.3,76.1,30.09,SW,220,3.1,4.6,79,0.00,BKN,,0.00,105.0,WeatherDisplay:10.37,2013-09-11 14:16:00,
2013-09-11 10:21:00,83.6,76.4,30.09,WSW,253,2.7,4.0,79,0.00,BKN,,0.00,107.0,WeatherDisplay:10.37,2013-09-11 14:21:00,
2013-09-11 10:26:00,83.9,76.7,30.09,West,279,2.2,3.5,79,0.00,BKN,,0.00,111.0,WeatherDisplay:10.37,2013-09-11 14:26:00,
2013-09-11 10:31:00,84.1,76.5,30.09,West,259,2.3,5.8,78,0.00,BKN,,0.00,253.0,WeatherDisplay:10.37,2013-09-11 14:31:00,
2013-09-11 10:37:00,84.5,76.5,30.09,WSW,246,1.1,5.8,77,0.00,BKN,,0.00,156.0,WeatherDisplay:10.37,2013-09-11 14:37:00,
2013-09-11 10:42:00,84.9,76.9,30.08,SW,235,0.1,3.5,77,0.00,BKN,,0.00,248.0,WeatherDisplay:10.37,2013-09-11 14:42:00,
2013-09-11 10:47:00,85.4,77.0,30.08,SW,229,2.0,3.5,76,0.00,BKN,,0.00,580.0,WeatherDisplay:10.37,2013-09-11 14:47:00,
2013-09-11 10:52:00,86.0,77.5,30.08,WNW,288,1.3,3.5,76,0.00,SCT,,0.00,585.0,WeatherDisplay:10.37,2013-09-11 14:52:00,
2013-09-11 10:57:00,86.6,77.3,30.08,WSW,250,2.7,4.6,74,0.00,FEW,,0.00,596.0,WeatherDisplay:10.37,2013-09-11 14:57:00,
2013-09-11 11:02:00,87.2,77.5,30.08,WNW,300,4.3,5.8,73,0.00,FEW,,0.00,610.0,WeatherDisplay:10.37,2013-09-11 15:02:00,
2013-09-11 11:07:00,87.8,77.6,30.08,NW,324,1.8,3.5,72,0.00,FEW,,0.00,615.0,WeatherDisplay:10.37,2013-09-11 15:07:00,
2013-09-11 11:12:00,88.6,77.6,30.08,WSW,242,1.8,3.5,70,0.00,FEW,,0.00,617.0,WeatherDisplay:10.37,2013-09-11 15:12:00,
2013-09-11 11:17:00,89.5,78.4,30.08,North,9,2.0,4.6,70,0.00,FEW,,0.00,633.0,WeatherDisplay:10.37,2013-09-11 15:17:00,
2013-09-11 11:22:00,90.4,79.7,30.08,NE,38,1.2,3.5,71,0.00,FEW,,0.00,638.0,WeatherDisplay:10.37,2013-09-11 15:22:00,
2013-09-11 11:28:00,91.4,78.9,30.08,NNW,342,2.6,4.0,67,0.00,FEW,,0.00,647.0,WeatherDisplay:10.37,2013-09-11 15:28:00,
2013-09-11 11:33:00,92.2,79.2,30.08,NNW,348,1.9,4.6,66,0.00,FEW,,0.00,650.0,WeatherDisplay:10.37,2013-09-11 15:33:00,
2013-09-11 11:38:00,92.8,79.3,30.08,NW,312,2.2,3.5,65,0.00,FEW,,0.00,656.0,WeatherDisplay:10.37,2013-09-11 15:38:00,
2013-09-11 11:43:00,93.2,78.7,30.08,WNW,284,1.8,3.5,63,0.00,FEW,,0.00,666.0,WeatherDisplay:10.37,2013-09-11 15:43:00,
2013-09-11 11:48:00,93.4,79.4,30.07,NW,324,1.5,3.5,64,0.00,FEW,,0.00,673.0,WeatherDisplay:10.37,2013-09-11 15:48:00,
2013-09-11 11:53:00,93.5,78.5,30.07,NW,321,2.2,3.5,62,0.00,FEW,,0.00,670.0,WeatherDisplay:10.37,2013-09-11 15:53:00,
2013-09-11 11:58:00,93.6,78.1,30.07,NW,305,1.6,3.5,61,0.00,FEW,,0.00,684.0,WeatherDisplay:10.37,2013-09-11 15:58:00,
2013-09-11 12:03:00,93.6,78.1,30.07,North,355,2.6,3.5,61,0.00,FEW,,0.00,689.0,WeatherDisplay:10.37,2013-09-11 16:03:00,
2013-09-11 12:08:00,93.7,79.2,30.07,WNW,300,1.4,4.0,63,0.00,FEW,,0.00,686.0,WeatherDisplay:10.37,2013-09-11 16:08:00,
2013-09-11 12:13:00,93.8,78.8,30.06,NNW,340,1.8,3.5,62,0.00,FEW,,0.00,694.0,WeatherDisplay:10.37,2013-09-11 16:13:00,
2013-09-11 12:19:00,94.0,78.5,30.06,NW,308,2.5,3.5,61,0.00,FEW,,0.00,694.0,WeatherDisplay:10.37,2013-09-11 16:19:00,
2013-09-11 12:24:00,94.4,78.4,30.06,NW,305,4.5,6.9,60,0.00,FEW,,0.00,694.0,WeatherDisplay:10.37,2013-09-11 16:24:00,
2013-09-11 12:29:00,94.5,79.0,30.06,North,5,2.9,4.6,61,0.00,FEW,,0.00,696.0,WeatherDisplay:10.37,2013-09-11 16:29:00,
2013-09-11 12:34:00,94.7,79.7,30.06,NNE,26,1.7,3.5,62,0.00,FEW,,0.00,696.0,WeatherDisplay:10.37,2013-09-11 16:34:00,
2013-09-11 12:39:00,94.9,79.3,30.06,North,350,2.8,3.5,61,0.00,FEW,,0.00,705.0,WeatherDisplay:10.37,2013-09-11 16:39:00,
2013-09-11 12:44:00,95.0,77.9,30.06,West,277,4.3,6.9,58,0.00,FEW,,0.00,701.0,WeatherDisplay:10.37,2013-09-11 16:44:00,
2013-09-11 12:49:00,95.0,78.9,30.05,NNW,333,3.3,4.0,60,0.00,SCT,,0.00,687.0,WeatherDisplay:10.37,2013-09-11 16:49:00,
2013-09-11 12:54:00,94.8,78.2,30.05,NW,325,1.9,3.5,59,0.00,FEW,,0.00,673.0,WeatherDisplay:10.37,2013-09-11 16:54:00,
2013-09-11 12:59:00,94.7,78.7,30.05,NW,304,3.9,4.0,60,0.00,FEW,,0.00,682.0,WeatherDisplay:10.37,2013-09-11 16:59:00,
2013-09-11 13:04:00,94.9,78.3,30.05,WSW,243,4.4,5.0,59,0.00,FEW,,0.00,714.0,WeatherDisplay:10.37,2013-09-11 17:04:00,
2013-09-11 13:10:00,95.4,78.3,30.05,NNW,331,0.2,3.5,58,0.00,FEW,,0.00,705.0,WeatherDisplay:10.37,2013-09-11 17:10:00,
2013-09-11 13:15:00,95.8,78.6,30.05,SSW,207,1.3,3.5,58,0.00,FEW,,0.00,710.0,WeatherDisplay:10.37,2013-09-11 17:15:00,
2013-09-11 13:20:00,96.2,78.0,30.04,SSE,153,2.6,8.1,56,0.00,FEW,,0.00,691.0,WeatherDisplay:10.37,2013-09-11 17:20:00,
2013-09-11 13:25:00,96.6,77.2,30.04,SE,130,2.6,8.0,54,0.00,FEW,,0.00,703.0,WeatherDisplay:10.37,2013-09-11 17:25:00,
2013-09-11 13:30:00,96.7,76.8,30.04,SE,138,3.4,4.6,53,0.00,FEW,,0.00,691.0,WeatherDisplay:10.37,2013-09-11 17:30:00,
2013-09-11 13:35:00,96.5,77.7,30.03,South,190,2.5,4.0,55,0.00,FEW,,0.00,687.0,WeatherDisplay:10.37,2013-09-11 17:35:00,
2013-09-11 13:40:00,96.6,77.2,30.03,SE,144,1.3,4.6,54,0.00,FEW,,0.00,698.0,WeatherDisplay:10.37,2013-09-11 17:40:00,
2013-09-11 13:45:00,96.8,77.4,30.03,SSW,196,2.3,3.5,54,0.00,FEW,,0.00,701.0,WeatherDisplay:10.37,2013-09-11 17:45:00,
2013-09-11 13:50:00,96.9,76.4,30.03,West,264,5.2,8.1,52,0.00,FEW,,0.00,668.0,WeatherDisplay:10.37,2013-09-11 17:50:00,
2013-09-11 13:55:00,97.1,77.1,30.03,South,170,2.3,4.6,53,0.00,FEW,,0.00,677.0,WeatherDisplay:10.37,2013-09-11 17:55:00,
2013-09-11 14:01:00,97.3,76.7,30.03,WSW,241,6.1,12.0,52,0.00,FEW,,0.00,666.0,WeatherDisplay:10.37,2013-09-11 18:01:00,
2013-09-11 14:06:00,97.3,76.1,30.03,South,188,5.2,11.5,51,0.00,FEW,,0.00,677.0,WeatherDisplay:10.37,2013-09-11 18:06:00,
2013-09-11 14:11:00,97.2,76.1,30.03,SSW,205,3.2,10.4,51,0.00,FEW,,0.00,668.0,WeatherDisplay:10.37,2013-09-11 18:11:00,
2013-09-11 14:16:00,97.2,76.1,30.02,SSW,210,8.7,12.7,51,0.00,FEW,,0.00,661.0,WeatherDisplay:10.37,2013-09-11 18:16:00,
2013-09-11 14:21:00,97.3,76.7,30.02,SSW,192,2.4,4.6,52,0.00,FEW,,0.00,647.0,WeatherDisplay:10.37,2013-09-11 18:21:00,
2013-09-11 14:26:00,97.3,76.7,30.02,SW,221,1.3,8.1,52,0.00,FEW,,0.00,645.0,WeatherDisplay:10.37,2013-09-11 18:26:00,
2013-09-11 14:31:00,97.4,76.2,30.02,South,186,5.7,5.8,51,0.00,FEW,,0.00,638.0,WeatherDisplay:10.37,2013-09-11 18:31:00,
2013-09-11 14:36:00,97.4,76.8,30.02,South,191,4.5,6.9,52,0.00,FEW,,0.00,636.0,WeatherDisplay:10.37,2013-09-11 18:36:00,
2013-09-11 14:41:00,97.5,76.3,30.02,SW,227,5.3,13.8,51,0.00,FEW,,0.00,629.0,WeatherDisplay:10.37,2013-09-11 18:41:00,
2013-09-11 14:46:00,97.4,76.2,30.02,West,263,3.2,4.6,51,0.00,FEW,,0.00,621.0,WeatherDisplay:10.37,2013-09-11 18:46:00,
2013-09-11 14:52:00,97.2,76.1,30.02,SW,230,5.4,11.5,51,0.00,FEW,,0.00,606.0,WeatherDisplay:10.37,2013-09-11 18:52:00,
2013-09-11 14:57:00,97.1,76.0,30.02,South,188,2.2,5.8,51,0.00,FEW,,0.00,596.0,WeatherDisplay:10.37,2013-09-11 18:57:00,
2013-09-11 15:02:00,96.7,76.2,30.01,South,185,2.7,4.0,52,0.00,FEW,,0.00,585.0,WeatherDisplay:10.37,2013-09-11 19:02:00,
2013-09-11 15:07:00,96.4,75.9,30.01,South,181,3.0,5.0,52,0.00,FEW,,0.00,578.0,WeatherDisplay:10.37,2013-09-11 19:07:00,
2013-09-11 15:12:00,96.3,75.8,30.01,South,186,3.4,7.0,52,0.00,FEW,,0.00,568.0,WeatherDisplay:10.37,2013-09-11 19:12:00,
2013-09-11 15:17:00,95.8,74.8,30.01,South,182,2.3,5.8,51,0.00,FEW,,0.00,550.0,WeatherDisplay:10.37,2013-09-11 19:17:00,
2013-09-11 15:22:00,95.4,75.6,30.01,SE,136,4.5,8.1,53,0.00,FEW,,0.00,550.0,WeatherDisplay:10.37,2013-09-11 19:22:00,
2013-09-11 15:27:00,95.1,75.3,30.01,SE,142,3.3,4.0,53,0.00,FEW,,0.00,536.0,WeatherDisplay:10.37,2013-09-11 19:27:00,
2013-09-11 15:32:00,94.8,74.4,30.01,SW,232,5.8,11.5,52,0.00,FEW,,0.00,522.0,WeatherDisplay:10.37,2013-09-11 19:32:00,
2013-09-11 15:37:00,94.6,74.8,30.01,SE,134,4.9,10.4,53,0.00,FEW,,0.00,508.0,WeatherDisplay:10.37,2013-09-11 19:37:00,
2013-09-11 15:43:00,94.0,74.8,30.01,South,175,4.3,6.9,54,0.00,FEW,,0.00,494.0,WeatherDisplay:10.37,2013-09-11 19:43:00,
2013-09-11 15:48:00,93.8,75.2,30.00,South,190,5.0,7.0,55,0.00,FEW,,0.00,485.0,WeatherDisplay:10.37,2013-09-11 19:48:00,
2013-09-11 15:53:00,93.6,73.9,30.00,SW,232,5.6,9.0,53,0.00,FEW,,0.00,471.0,WeatherDisplay:10.37,2013-09-11 19:53:00,
2013-09-11 15:58:00,93.4,74.8,30.00,South,191,3.5,8.1,55,0.00,FEW,,0.00,459.0,WeatherDisplay:10.37,2013-09-11 19:58:00,
2013-09-11 16:03:00,93.3,74.2,30.00,South,181,3.5,5.0,54,0.00,FEW,,0.00,403.0,WeatherDisplay:10.37,2013-09-11 20:03:00,
2013-09-11 16:08:00,92.9,73.2,30.00,SE,141,4.1,6.9,53,0.00,FEW,,0.00,438.0,WeatherDisplay:10.37,2013-09-11 20:08:00,
2013-09-11 16:13:00,92.4,73.9,30.00,South,189,4.2,7.0,55,0.00,FEW,,0.00,422.0,WeatherDisplay:10.37,2013-09-11 20:13:00,
2013-09-11 16:18:00,92.0,73.0,29.99,SW,224,3.8,5.8,54,0.00,CLR,,0.00,408.0,WeatherDisplay:10.37,2013-09-11 20:18:00,
2013-09-11 16:23:00,91.8,73.3,29.99,ESE,120,2.2,10.0,55,0.00,FEW,,0.00,392.0,WeatherDisplay:10.37,2013-09-11 20:23:00,
2013-09-11 16:28:00,91.4,72.4,30.00,SE,140,3.0,5.8,54,0.00,FEW,,0.00,376.0,WeatherDisplay:10.37,2013-09-11 20:28:00,
2013-09-11 16:34:00,91.1,72.1,30.00,South,188,5.4,6.9,54,0.00,FEW,,0.00,362.0,WeatherDisplay:10.37,2013-09-11 20:34:00,
2013-09-11 16:39:00,90.8,72.4,29.99,SSE,150,2.9,9.2,55,0.00,FEW,,0.00,345.0,WeatherDisplay:10.37,2013-09-11 20:39:00,
2013-09-11 16:44:00,90.7,72.8,29.99,SE,124,3.6,6.9,56,0.00,FEW,,0.00,329.0,WeatherDisplay:10.37,2013-09-11 20:44:00,
2013-09-11 16:49:00,90.4,72.6,29.99,SSW,199,1.7,5.8,56,0.00,FEW,,0.00,278.0,WeatherDisplay:10.37,2013-09-11 20:49:00,
2013-09-11 16:54:00,90.2,72.4,29.99,SSW,194,2.6,4.6,56,0.00,FEW,,0.00,302.0,WeatherDisplay:10.37,2013-09-11 20:54:00,
2013-09-11 16:59:00,89.9,72.1,29.99,SSE,167,3.8,5.8,56,0.00,FEW,,0.00,285.0,WeatherDisplay:10.37,2013-09-11 20:59:00,
2013-09-11 17:04:00,89.8,72.5,29.98,SSE,154,2.2,4.6,57,0.00,FEW,,0.00,262.0,WeatherDisplay:10.37,2013-09-11 21:04:00,
2013-09-11 17:09:00,89.7,72.4,29.99,SW,232,2.2,8.1,57,0.00,FEW,,0.00,250.0,WeatherDisplay:10.37,2013-09-11 21:09:00,
2013-09-11 17:14:00,89.5,72.3,29.98,SSW,202,3.5,10.4,57,0.00,FEW,,0.00,236.0,WeatherDisplay:10.37,2013-09-11 21:14:00,
2013-09-11 17:19:00,89.3,72.6,29.98,SE,136,3.2,6.0,58,0.00,SCT,,0.00,81.0,WeatherDisplay:10.37,2013-09-11 21:19:00,
2013-09-11 17:25:00,89.1,71.9,29.98,SSE,164,1.7,8.1,57,0.00,BKN,,0.00,77.0,WeatherDisplay:10.37,2013-09-11 21:25:00,
2013-09-11 17:30:00,88.8,72.1,29.98,South,186,2.7,4.6,58,0.00,BKN,,0.00,72.0,WeatherDisplay:10.37,2013-09-11 21:30:00,
2013-09-11 17:35:00,88.5,72.3,29.99,South,172,1.7,5.0,59,0.00,BKN,,0.00,69.0,WeatherDisplay:10.37,2013-09-11 21:35:00,
2013-09-11 17:40:00,88.2,72.6,29.99,South,190,1.1,3.5,60,0.00,BKN,,0.00,65.0,WeatherDisplay:10.37,2013-09-11 21:40:00,
2013-09-11 17:45:00,88.1,72.5,29.98,SW,229,1.4,2.3,60,0.00,BKN,,0.00,62.0,WeatherDisplay:10.37,2013-09-11 21:45:00,
2013-09-11 17:50:00,87.7,72.1,29.98,South,186,2.1,5.8,60,0.00,BKN,,0.00,58.0,WeatherDisplay:10.37,2013-09-11 21:50:00,
2013-09-11 17:55:00,87.6,72.0,29.98,SSE,161,2.0,5.8,60,0.00,BKN,,0.00,54.0,WeatherDisplay:10.37,2013-09-11 21:55:00,
2013-09-11 18:00:00,87.3,72.2,29.98,SE,143,2.2,3.5,61,0.00,BKN,,0.00,49.0,WeatherDisplay:10.37,2013-09-11 22:00:00,
2013-09-11 18:05:00,87.1,72.0,29.99,SSE,157,1.8,2.3,61,0.00,BKN,,0.00,46.0,WeatherDisplay:10.37,2013-09-11 22:05:00,
2013-09-11 18:10:00,86.9,72.3,29.99,SSE,148,0.3,1.2,62,0.00,BKN,,0.00,42.0,WeatherDisplay:10.37,2013-09-11 22:10:00,
2013-09-11 18:16:00,86.7,72.1,29.99,WSW,238,2.2,10.4,62,0.00,BKN,,0.00,39.0,WeatherDisplay:10.37,2013-09-11 22:16:00,
2013-09-11 18:21:00,86.3,71.7,29.99,WSW,246,4.2,9.0,62,0.00,BKN,,0.00,32.0,WeatherDisplay:10.37,2013-09-11 22:21:00,
2013-09-11 18:26:00,85.9,71.8,29.99,South,188,3.5,9.2,63,0.00,BKN,,0.00,28.0,WeatherDisplay:10.37,2013-09-11 22:26:00,
2013-09-11 18:31:00,85.6,72.0,29.99,SSE,147,3.0,7.0,64,0.00,BKN,,0.00,14.0,WeatherDisplay:10.37,2013-09-11 22:31:00,
2013-09-11 18:36:00,85.3,71.7,29.99,SSW,198,2.2,4.6,64,0.00,BKN,,0.00,7.0,WeatherDisplay:10.37,2013-09-11 22:36:00,
2013-09-11 18:41:00,85.0,71.9,30.00,South,179,3.5,6.9,65,0.00,BKN,,0.00,5.0,WeatherDisplay:10.37,2013-09-11 22:41:00,
2013-09-11 18:46:00,84.7,71.6,30.00,SE,140,2.5,3.5,65,0.00,BKN,,0.00,5.0,WeatherDisplay:10.37,2013-09-11 22:46:00,
2013-09-11 18:51:00,84.3,71.7,30.00,South,176,1.5,5.8,66,0.00,OVC,,0.00,0.0,WeatherDisplay:10.37,2013-09-11 22:51:00,
2013-09-11 18:56:00,84.1,72.0,30.00,SE,134,3.0,4.6,67,0.00,OVC,,0.00,0.0,WeatherDisplay:10.37,2013-09-11 22:56:00,
2013-09-11 19:01:00,83.7,71.6,30.00,SSE,162,1.3,3.5,67,0.00,OVC,,0.00,0.0,WeatherDisplay:10.37,2013-09-11 23:01:00,
2013-09-11 19:07:00,83.5,71.8,30.00,SSW,197,3.4,8.1,68,0.00,OVC,,0.00,0.0,WeatherDisplay:10.37,2013-09-11 23:07:00,
2013-09-11 19:12:00,83.2,71.5,30.00,SSE,149,1.4,3.5,68,0.00,OVC,,0.00,0.0,WeatherDisplay:10.37,2013-09-11 23:12:00,
2013-09-11 19:17:00,83.0,71.8,30.00,SSE,150,1.9,3.5,69,0.00,OVC,,0.00,0.0,WeatherDisplay:10.37,2013-09-11 23:17:00,
2013-09-11 19:22:00,82.8,71.6,30.00,SSW,200,2.6,5.8,69,0.00,OVC,,0.00,0.0,WeatherDisplay:10.37,2013-09-11 23:22:00,
2013-09-11 19:27:00,82.5,71.7,30.00,SSW,211,2.3,3.5,70,0.00,OVC,,0.00,0.0,WeatherDisplay:10.37,2013-09-11 23:27:00,
2013-09-11 19:32:00,82.3,71.5,30.00,SSW,193,2.4,4.6,70,0.00,OVC,,0.00,0.0,WeatherDisplay:10.37,2013-09-11 23:32:00,
2013-09-11 19:37:00,82.1,71.8,30.00,South,184,2.6,3.5,71,0.00,OVC,,0.00,0.0,WeatherDisplay:10.37,2013-09-11 23:37:00,
2013-09-11 19:42:00,82.0,71.7,30.00,SE,128,2.1,3.5,71,0.00,CLR,,0.00,0.0,WeatherDisplay:10.37,2013-09-11 23:42:00,
2013-09-11 19:47:00,81.8,71.9,30.00,SSE,148,2.2,3.5,72,0.00,CLR,,0.00,0.0,WeatherDisplay:10.37,2013-09-11 23:47:00,
2013-09-11 19:52:00,81.6,71.7,30.00,South,182,3.1,9.2,72,0.00,CLR,,0.00,0.0,WeatherDisplay:10.37,2013-09-11 23:52:00,
2013-09-11 19:58:00,81.4,71.5,30.00,SSE,153,1.5,6.9,72,0.00,CLR,,0.00,0.0,WeatherDisplay:10.37,2013-09-11 23:58:00,
2013-09-11 20:03:00,81.2,71.7,30.00,SSE,150,1.8,6.9,73,0.00,CLR,,0.00,0.0,WeatherDisplay:10.37,2013-09-12 00:03:00,
2013-09-11 20:08:00,81.1,71.6,30.00,SE,144,2.7,6.0,73,0.00,CLR,,0.00,0.0,WeatherDisplay:10.37,2013-09-12 00:08:00,
2013-09-11 20:13:00,80.9,71.4,30.00,SSE,151,2.2,4.6,73,0.00,CLR,,0.00,0.0,WeatherDisplay:10.37,2013-09-12 00:13:00,
2013-09-11 20:18:00,80.8,71.7,30.00,SSE,155,2.1,3.5,74,0.00,CLR,,0.00,0.0,WeatherDisplay:10.37,2013-09-12 00:18:00,
2013-09-11 20:23:00,80.7,71.6,30.00,SE,131,2.5,4.6,74,0.00,CLR,,0.00,0.0,WeatherDisplay:10.37,2013-09-12 00:23:00,
2013-09-11 20:28:00,80.5,71.4,30.01,SSE,165,2.3,4.6,74,0.00,CLR,,0.00,0.0,WeatherDisplay:10.37,2013-09-12 00:28:00,
2013-09-11 20:33:00,80.4,71.7,30.01,SSE,148,2.1,6.9,75,0.00,CLR,,0.00,0.0,WeatherDisplay:10.37,2013-09-12 00:33:00,
2013-09-11 20:39:00,80.3,71.6,30.01,South,182,1.5,5.8,75,0.00,CLR,,0.00,0.0,WeatherDisplay:10.37,2013-09-12 00:39:00,
2013-09-11 20:44:00,80.2,71.9,30.01,SE,138,1.1,3.5,76,0.00,CLR,,0.00,0.0,WeatherDisplay:10.37,2013-09-12 00:44:00,
2013-09-11 20:49:00,80.1,71.8,30.01,SW,225,2.8,4.6,76,0.00,CLR,,0.00,0.0,WeatherDisplay:10.37,2013-09-12 00:49:00,
2013-09-11 20:54:00,80.0,72.1,30.01,SE,140,1.5,3.5,77,0.00,CLR,,0.00,0.0,WeatherDisplay:10.37,2013-09-12 00:54:00,
2013-09-11 20:59:00,79.9,72.0,30.01,SSW,196,2.2,4.6,77,0.00,CLR,,0.00,0.0,WeatherDisplay:10.37,2013-09-12 00:59:00,
2013-09-11 21:04:00,79.9,72.0,30.00,South,187,3.0,6.9,77,0.00,CLR,,0.00,0.0,WeatherDisplay:10.37,2013-09-12 01:04:00,
2013-09-11 21:09:00,79.8,71.9,30.00,SSW,212,1.6,2.3,77,0.00,CLR,,0.00,0.0,WeatherDisplay:10.37,2013-09-12 01:09:00,
2013-09-11 21:14:00,79.8,71.9,30.00,SSW,192,1.4,2.3,77,0.00,CLR,,0.00,0.0,WeatherDisplay:10.37,2013-09-12 01:14:00,
2013-09-11 21:19:00,79.7,72.2,30.00,South,169,1.1,2.3,78,0.00,CLR,,0.00,0.0,WeatherDisplay:10.37,2013-09-12 01:19:00,
2013-09-11 21:25:00,79.7,72.2,30.00,South,184,2.0,3.5,78,0.00,CLR,,0.00,0.0,WeatherDisplay:10.37,2013-09-12 01:25:00,
2013-09-11 21:30:00,79.7,72.2,30.00,SSE,156,1.9,3.5,78,0.00,CLR,,0.00,0.0,WeatherDisplay:10.37,2013-09-12 01:30:00,
2013-09-11 21:35:00,79.6,72.1,30.00,South,187,2.3,5.8,78,0.00,CLR,,0.00,0.0,WeatherDisplay:10.37,2013-09-12 01:35:00,
2013-09-11 21:40:00,79.6,72.1,30.00,South,185,1.2,3.5,78,0.00,CLR,,0.00,0.0,WeatherDisplay:10.37,2013-09-12 01:40:00,
2013-09-11 21:45:00,79.6,72.1,30.00,SW,214,3.0,5.8,78,0.00,CLR,,0.00,0.0,WeatherDisplay:10.37,2013-09-12 01:45:00,
2013-09-11 21:50:00,79.5,72.0,30.00,SW,236,0.5,2.3,78,0.00,CLR,,0.00,0.0,WeatherDisplay:10.37,2013-09-12 01:50:00,
2013-09-11 21:55:00,79.4,72.3,30.00,South,184,1.7,3.5,79,0.00,CLR,,0.00,0.0,WeatherDisplay:10.37,2013-09-12 01:55:00,
2013-09-11 22:00:00,79.4,72.3,30.00,SSE,165,0.8,3.5,79,0.00,CLR,,0.00,0.0,WeatherDisplay:10.37,2013-09-12 02:00:00,
2013-09-11 22:05:00,79.3,72.2,30.00,SSW,206,2.0,3.5,79,0.00,CLR,,0.00,0.0,WeatherDisplay:10.37,2013-09-12 02:05:00,
2013-09-11 22:11:00,79.2,72.1,30.00,SW,219,2.9,3.5,79,0.00,CLR,,0.00,0.0,WeatherDisplay:10.37,2013-09-12 02:11:00,
2013-09-11 22:16:00,79.2,72.5,30.00,SW,229,2.1,3.5,80,0.00,CLR,,0.00,0.0,WeatherDisplay:10.37,2013-09-12 02:16:00,
2013-09-11 22:21:00,79.1,72.4,30.00,SSW,211,1.7,3.5,80,0.00,CLR,,0.00,0.0,WeatherDisplay:10.37,2013-09-12 02:21:00,
2013-09-11 22:26:00,79.0,72.3,30.00,WSW,240,2.8,3.5,80,0.00,CLR,,0.00,0.0,WeatherDisplay:10.37,2013-09-12 02:26:00,
2013-09-11 22:31:00,79.0,72.3,30.00,SW,221,2.6,4.6,80,0.00,CLR,,0.00,0.0,WeatherDisplay:10.37,2013-09-12 02:31:00,
2013-09-11 22:36:00,79.0,72.3,30.00,SW,232,1.5,3.5,80,0.00,CLR,,0.00,0.0,WeatherDisplay:10.37,2013-09-12 02:36:00,
2013-09-11 22:41:00,79.0,72.3,30.00,WSW,239,2.0,3.5,80,0.00,CLR,,0.00,0.0,WeatherDisplay:10.37,2013-09-12 02:41:00,
2013-09-11 22:46:00,79.0,72.3,30.00,SW,224,2.7,3.5,80,0.00,CLR,,0.00,0.0,WeatherDisplay:10.37,2013-09-12 02:46:00,
2013-09-11 22:51:00,79.0,72.3,30.00,West,269,2.7,4.6,80,0.00,CLR,,0.00,0.0,WeatherDisplay:10.37,2013-09-12 02:51:00,
2013-09-11 22:56:00,79.0,72.3,30.01,WNW,300,3.3,5.0,80,0.00,CLR,,0.00,0.0,WeatherDisplay:10.37,2013-09-12 02:56:00,
2013-09-11 23:02:00,79.0,72.3,30.00,West,262,4.9,5.8,80,0.00,CLR,,0.00,0.0,WeatherDisplay:10.37,2013-09-12 03:02:00,
2013-09-11 23:07:00,79.0,72.3,30.00,West,277,1.0,5.8,80,0.00,CLR,,0.00,0.0,WeatherDisplay:10.37,2013-09-12 03:07:00,
2013-09-11 23:12:00,79.0,72.3,30.00,West,263,0.0,0.0,80,0.00,CLR,,0.00,0.0,WeatherDisplay:10.37,2013-09-12 03:12:00,
2013-09-11 23:17:00,79.0,72.3,30.00,West,263,0.6,1.2,80,0.00,CLR,,0.00,0.0,WeatherDisplay:10.37,2013-09-12 03:17:00,
2013-09-11 23:22:00,79.0,72.3,30.00,West,263,0.0,0.0,80,0.00,CLR,,0.00,0.0,WeatherDisplay:10.37,2013-09-12 03:22:00,
2013-09-11 23:27:00,78.9,72.6,30.00,West,263,0.0,0.0,81,0.00,CLR,,0.00,0.0,WeatherDisplay:10.37,2013-09-12 03:27:00,
2013-09-11 23:32:00,78.9,72.6,30.00,West,263,0.0,0.0,81,0.00,CLR,,0.00,0.0,WeatherDisplay:10.37,2013-09-12 03:32:00,
2013-09-11 23:37:00,78.8,72.5,30.00,West,263,0.0,0.0,81,0.00,CLR,,0.00,0.0,WeatherDisplay:10.37,2013-09-12 03:37:00,
2013-09-11 23:42:00,78.7,72.4,30.00,West,263,0.3,1.2,81,0.00,CLR,,0.00,0.0,WeatherDisplay:10.37,2013-09-12 03:42:00,
2013-09-11 23:47:00,78.5,72.2,30.00,SW,224,2.6,3.0,81,0.00,CLR,,0.00,0.0,WeatherDisplay:10.37,2013-09-12 03:47:00,
2013-09-11 23:53:00,78.4,72.1,29.99,SW,228,0.0,1.2,81,0.00,CLR,,0.00,0.0,WeatherDisplay:10.37,2013-09-12 03:53:00,
2013-09-11 23:58:00,78.3,72.3,29.99,SW,228,0.0,0.0,82,0.00,CLR,,0.00,0.0,WeatherDisplay:10.37,2013-09-12 03:58:00,